sensor_id;sensor_type;location;lat;lon;timestamp;temperature;humidity
11989;DHT22;6054;50.966;7.094;2022-08-21T00:00:22;26.50;45.00
11989;DHT22;6054;50.966;7.094;2022-08-21T00:02:52;26.50;45.10
11989;DHT22;6054;50.966;7.094;2022-08-21T00:05:21;26.50;45.30
11989;DHT22;6054;50.966;7.094;2022-08-21T00:07:48;26.40;45.30
11989;DHT22;6054;50.966;7.094;2022-08-21T00:10:17;26.40;45.00
11989;DHT22;6054;50.966;7.094;2022-08-21T00:12:45;26.40;45.20
11989;DHT22;6054;50.966;7.094;2022-08-21T00:15:15;26.40;45.10
11989;DHT22;6054;50.966;7.094;2022-08-21T00:17:42;26.40;45.50
11989;DHT22;6054;50.966;7.094;2022-08-21T00:20:11;26.40;45.20
11989;DHT22;6054;50.966;7.094;2022-08-21T00:22:38;26.30;45.40
11989;DHT22;6054;50.966;7.094;2022-08-21T00:25:07;26.30;45.10
11989;DHT22;6054;50.966;7.094;2022-08-21T00:27:36;26.20;45.40
11989;DHT22;6054;50.966;7.094;2022-08-21T00:30:06;26.20;45.60
11989;DHT22;6054;50.966;7.094;2022-08-21T00:32:34;26.20;45.60
11989;DHT22;6054;50.966;7.094;2022-08-21T00:35:03;26.20;45.70
11989;DHT22;6054;50.966;7.094;2022-08-21T00:37:30;26.10;45.60
11989;DHT22;6054;50.966;7.094;2022-08-21T00:39:56;26.10;45.30
11989;DHT22;6054;50.966;7.094;2022-08-21T00:42:23;26.00;45.20
11989;DHT22;6054;50.966;7.094;2022-08-21T00:44:51;26.00;45.40
11989;DHT22;6054;50.966;7.094;2022-08-21T00:47:19;25.90;45.50
11989;DHT22;6054;50.966;7.094;2022-08-21T00:49:46;26.10;45.90
11989;DHT22;6054;50.966;7.094;2022-08-21T00:52:15;25.90;45.20
11989;DHT22;6054;50.966;7.094;2022-08-21T00:54:44;25.90;45.90
11989;DHT22;6054;50.966;7.094;2022-08-21T00:57:15;25.90;45.90
11989;DHT22;6054;50.966;7.094;2022-08-21T00:59:44;25.90;46.00
11989;DHT22;6054;50.966;7.094;2022-08-21T01:02:13;25.80;45.90
11989;DHT22;6054;50.966;7.094;2022-08-21T01:04:40;25.90;46.10
11989;DHT22;6054;50.966;7.094;2022-08-21T01:07:07;25.80;45.80
11989;DHT22;6054;50.966;7.094;2022-08-21T01:09:34;25.80;45.60
11989;DHT22;6054;50.966;7.094;2022-08-21T01:12:02;25.70;46.10
11989;DHT22;6054;50.966;7.094;2022-08-21T01:14:29;25.70;46.20
11989;DHT22;6054;50.966;7.094;2022-08-21T01:16:58;25.60;46.00
11989;DHT22;6054;50.966;7.094;2022-08-21T01:19:27;25.60;46.10
11989;DHT22;6054;50.966;7.094;2022-08-21T01:21:56;25.60;45.80
11989;DHT22;6054;50.966;7.094;2022-08-21T01:37:21;25.40;46.10
11989;DHT22;6054;50.966;7.094;2022-08-21T01:39:48;25.40;46.00
11989;DHT22;6054;50.966;7.094;2022-08-21T01:42:15;25.40;46.10
11989;DHT22;6054;50.966;7.094;2022-08-21T01:44:42;25.40;45.60
11989;DHT22;6054;50.966;7.094;2022-08-21T01:47:11;25.30;45.60
11989;DHT22;6054;50.966;7.094;2022-08-21T01:49:39;25.60;46.60
11989;DHT22;6054;50.966;7.094;2022-08-21T01:52:06;25.50;46.40
11989;DHT22;6054;50.966;7.094;2022-08-21T01:54:34;25.30;45.50
11989;DHT22;6054;50.966;7.094;2022-08-21T01:57:02;25.30;46.30
11989;DHT22;6054;50.966;7.094;2022-08-21T01:59:29;25.30;46.40
11989;DHT22;6054;50.966;7.094;2022-08-21T02:01:56;25.20;46.10
11989;DHT22;6054;50.966;7.094;2022-08-21T02:04:23;25.20;46.10
11989;DHT22;6054;50.966;7.094;2022-08-21T02:06:50;25.20;45.80
11989;DHT22;6054;50.966;7.094;2022-08-21T02:09:17;25.20;45.80
11989;DHT22;6054;50.966;7.094;2022-08-21T02:11:45;25.30;44.80
11989;DHT22;6054;50.966;7.094;2022-08-21T02:14:14;25.30;46.20
11989;DHT22;6054;50.966;7.094;2022-08-21T02:16:43;25.10;46.30
11989;DHT22;6054;50.966;7.094;2022-08-21T02:19:11;25.10;46.30
11989;DHT22;6054;50.966;7.094;2022-08-21T02:21:38;25.30;46.30
11989;DHT22;6054;50.966;7.094;2022-08-21T02:24:05;25.30;45.90
11989;DHT22;6054;50.966;7.094;2022-08-21T02:26:32;25.10;46.20
11989;DHT22;6054;50.966;7.094;2022-08-21T02:29:02;25.00;46.30
11989;DHT22;6054;50.966;7.094;2022-08-21T02:31:29;25.00;46.20
11989;DHT22;6054;50.966;7.094;2022-08-21T02:33:56;25.00;45.80
11989;DHT22;6054;50.966;7.094;2022-08-21T02:36:23;24.90;45.90
11989;DHT22;6054;50.966;7.094;2022-08-21T02:38:50;25.20;45.80
11989;DHT22;6054;50.966;7.094;2022-08-21T02:41:19;24.90;45.70
11989;DHT22;6054;50.966;7.094;2022-08-21T02:43:47;24.90;46.40
11989;DHT22;6054;50.966;7.094;2022-08-21T02:46:18;24.80;45.80
11989;DHT22;6054;50.966;7.094;2022-08-21T02:48:46;24.80;46.40
11989;DHT22;6054;50.966;7.094;2022-08-21T02:51:17;24.70;45.90
11989;DHT22;6054;50.966;7.094;2022-08-21T02:53:45;24.70;46.40
11989;DHT22;6054;50.966;7.094;2022-08-21T02:56:15;24.70;46.60
11989;DHT22;6054;50.966;7.094;2022-08-21T02:58:46;24.70;46.50
11989;DHT22;6054;50.966;7.094;2022-08-21T03:01:15;24.60;46.40
11989;DHT22;6054;50.966;7.094;2022-08-21T03:03:44;24.60;46.00
11989;DHT22;6054;50.966;7.094;2022-08-21T03:06:15;24.60;46.40
11989;DHT22;6054;50.966;7.094;2022-08-21T03:08:43;24.50;46.50
11989;DHT22;6054;50.966;7.094;2022-08-21T03:11:11;24.50;46.60
11989;DHT22;6054;50.966;7.094;2022-08-21T03:13:39;24.40;47.00
11989;DHT22;6054;50.966;7.094;2022-08-21T03:16:06;24.40;47.10
11989;DHT22;6054;50.966;7.094;2022-08-21T03:18:35;24.40;47.20
11989;DHT22;6054;50.966;7.094;2022-08-21T03:21:02;24.50;46.90
11989;DHT22;6054;50.966;7.094;2022-08-21T03:23:29;24.40;46.80
11989;DHT22;6054;50.966;7.094;2022-08-21T03:25:56;24.40;47.00
11989;DHT22;6054;50.966;7.094;2022-08-21T03:28:23;24.30;46.50
11989;DHT22;6054;50.966;7.094;2022-08-21T03:30:51;24.30;46.60
11989;DHT22;6054;50.966;7.094;2022-08-21T03:33:19;24.30;46.80
11989;DHT22;6054;50.966;7.094;2022-08-21T03:35:54;24.30;47.00
11989;DHT22;6054;50.966;7.094;2022-08-21T03:38:22;24.30;47.70
11989;DHT22;6054;50.966;7.094;2022-08-21T03:40:48;24.30;46.00
11989;DHT22;6054;50.966;7.094;2022-08-21T03:43:15;24.30;45.70
11989;DHT22;6054;50.966;7.094;2022-08-21T03:45:42;24.20;44.90
11989;DHT22;6054;50.966;7.094;2022-08-21T03:48:09;24.40;46.30
11989;DHT22;6054;50.966;7.094;2022-08-21T03:50:38;24.30;46.00
11989;DHT22;6054;50.966;7.094;2022-08-21T03:53:07;24.40;47.20
11989;DHT22;6054;50.966;7.094;2022-08-21T03:55:34;24.10;47.20
11989;DHT22;6054;50.966;7.094;2022-08-21T03:58:02;24.30;47.10
11989;DHT22;6054;50.966;7.094;2022-08-21T04:00:32;24.10;47.30
11989;DHT22;6054;50.966;7.094;2022-08-21T04:02:59;24.10;46.90
11989;DHT22;6054;50.966;7.094;2022-08-21T04:05:25;24.10;46.70
11989;DHT22;6054;50.966;7.094;2022-08-21T04:07:57;24.10;46.30
11989;DHT22;6054;50.966;7.094;2022-08-21T04:10:26;24.00;46.90
11989;DHT22;6054;50.966;7.094;2022-08-21T04:12:54;24.10;46.40
11989;DHT22;6054;50.966;7.094;2022-08-21T04:15:22;24.00;46.90
11989;DHT22;6054;50.966;7.094;2022-08-21T04:17:49;24.00;47.00
11989;DHT22;6054;50.966;7.094;2022-08-21T04:20:17;24.00;46.60
11989;DHT22;6054;50.966;7.094;2022-08-21T04:22:44;24.00;46.40
11989;DHT22;6054;50.966;7.094;2022-08-21T04:25:13;23.90;46.90
11989;DHT22;6054;50.966;7.094;2022-08-21T04:27:41;24.00;46.90
11989;DHT22;6054;50.966;7.094;2022-08-21T04:30:10;23.90;46.20
11989;DHT22;6054;50.966;7.094;2022-08-21T04:32:38;23.90;47.20
11989;DHT22;6054;50.966;7.094;2022-08-21T04:35:09;23.90;46.40
11989;DHT22;6054;50.966;7.094;2022-08-21T04:37:36;23.80;47.00
11989;DHT22;6054;50.966;7.094;2022-08-21T04:40:04;24.10;47.00
11989;DHT22;6054;50.966;7.094;2022-08-21T04:42:31;23.80;46.90
11989;DHT22;6054;50.966;7.094;2022-08-21T04:44:59;23.70;46.30
11989;DHT22;6054;50.966;7.094;2022-08-21T04:47:26;23.70;46.30
11989;DHT22;6054;50.966;7.094;2022-08-21T04:49:53;23.70;45.90
11989;DHT22;6054;50.966;7.094;2022-08-21T04:52:22;23.70;45.80
11989;DHT22;6054;50.966;7.094;2022-08-21T04:54:50;23.70;46.90
11989;DHT22;6054;50.966;7.094;2022-08-21T04:57:18;23.70;47.80
11989;DHT22;6054;50.966;7.094;2022-08-21T04:59:48;23.70;47.50
11989;DHT22;6054;50.966;7.094;2022-08-21T05:02:18;23.60;47.70
11989;DHT22;6054;50.966;7.094;2022-08-21T05:04:48;23.60;47.50
11989;DHT22;6054;50.966;7.094;2022-08-21T05:07:19;23.80;48.10
11989;DHT22;6054;50.966;7.094;2022-08-21T05:09:46;23.60;47.90
11989;DHT22;6054;50.966;7.094;2022-08-21T05:12:13;23.60;46.60
11989;DHT22;6054;50.966;7.094;2022-08-21T05:14:41;23.70;47.90
11989;DHT22;6054;50.966;7.094;2022-08-21T05:17:08;23.60;47.30
11989;DHT22;6054;50.966;7.094;2022-08-21T05:19:36;23.70;47.70
11989;DHT22;6054;50.966;7.094;2022-08-21T05:22:03;23.70;46.40
11989;DHT22;6054;50.966;7.094;2022-08-21T05:24:30;23.70;47.20
11989;DHT22;6054;50.966;7.094;2022-08-21T05:26:57;23.70;47.20
11989;DHT22;6054;50.966;7.094;2022-08-21T05:29:24;23.70;47.40
11989;DHT22;6054;50.966;7.094;2022-08-21T05:31:52;23.70;48.20
11989;DHT22;6054;50.966;7.094;2022-08-21T05:34:21;23.80;48.30
11989;DHT22;6054;50.966;7.094;2022-08-21T05:36:50;23.80;48.30
11989;DHT22;6054;50.966;7.094;2022-08-21T05:39:17;23.90;47.50
11989;DHT22;6054;50.966;7.094;2022-08-21T05:41:43;24.00;47.30
11989;DHT22;6054;50.966;7.094;2022-08-21T05:44:10;23.90;47.50
11989;DHT22;6054;50.966;7.094;2022-08-21T05:46:37;24.00;46.90
11989;DHT22;6054;50.966;7.094;2022-08-21T05:49:04;24.00;48.30
11989;DHT22;6054;50.966;7.094;2022-08-21T05:51:31;24.10;47.90
11989;DHT22;6054;50.966;7.094;2022-08-21T05:53:59;24.10;47.80
11989;DHT22;6054;50.966;7.094;2022-08-21T05:56:26;24.20;46.90
11989;DHT22;6054;50.966;7.094;2022-08-21T05:58:53;24.20;46.90
11989;DHT22;6054;50.966;7.094;2022-08-21T06:01:21;24.30;48.30
11989;DHT22;6054;50.966;7.094;2022-08-21T06:03:47;24.30;48.40
11989;DHT22;6054;50.966;7.094;2022-08-21T06:06:14;24.40;48.40
11989;DHT22;6054;50.966;7.094;2022-08-21T06:08:42;24.60;48.50
11989;DHT22;6054;50.966;7.094;2022-08-21T06:11:10;24.50;48.80
11989;DHT22;6054;50.966;7.094;2022-08-21T06:13:37;24.60;48.30
11989;DHT22;6054;50.966;7.094;2022-08-21T06:16:07;24.70;48.50
11989;DHT22;6054;50.966;7.094;2022-08-21T06:18:35;24.70;48.80
11989;DHT22;6054;50.966;7.094;2022-08-21T06:21:03;24.80;48.70
11989;DHT22;6054;50.966;7.094;2022-08-21T06:23:31;24.90;48.60
11989;DHT22;6054;50.966;7.094;2022-08-21T06:25:58;25.10;48.20
11989;DHT22;6054;50.966;7.094;2022-08-21T06:28:26;24.90;47.20
11989;DHT22;6054;50.966;7.094;2022-08-21T06:30:54;25.10;47.90
11989;DHT22;6054;50.966;7.094;2022-08-21T06:33:21;25.10;47.70
11989;DHT22;6054;50.966;7.094;2022-08-21T06:35:47;25.20;48.00
11989;DHT22;6054;50.966;7.094;2022-08-21T06:38:14;25.30;47.50
11989;DHT22;6054;50.966;7.094;2022-08-21T06:40:41;25.30;47.20
11989;DHT22;6054;50.966;7.094;2022-08-21T06:43:11;25.30;47.30
11989;DHT22;6054;50.966;7.094;2022-08-21T06:45:39;25.30;47.60
11989;DHT22;6054;50.966;7.094;2022-08-21T06:48:06;25.40;47.50
11989;DHT22;6054;50.966;7.094;2022-08-21T06:50:33;25.40;46.50
11989;DHT22;6054;50.966;7.094;2022-08-21T06:53:02;25.50;47.50
11989;DHT22;6054;50.966;7.094;2022-08-21T06:55:29;25.50;47.20
11989;DHT22;6054;50.966;7.094;2022-08-21T06:57:56;25.60;46.80
11989;DHT22;6054;50.966;7.094;2022-08-21T07:00:23;25.70;46.60
11989;DHT22;6054;50.966;7.094;2022-08-21T07:02:51;25.70;46.10
11989;DHT22;6054;50.966;7.094;2022-08-21T07:05:18;25.80;45.90
11989;DHT22;6054;50.966;7.094;2022-08-21T07:07:45;25.90;47.20
11989;DHT22;6054;50.966;7.094;2022-08-21T07:10:12;25.90;46.70
11989;DHT22;6054;50.966;7.094;2022-08-21T07:12:39;26.00;47.10
11989;DHT22;6054;50.966;7.094;2022-08-21T07:15:07;26.10;46.90
11989;DHT22;6054;50.966;7.094;2022-08-21T07:17:34;26.20;46.90
11989;DHT22;6054;50.966;7.094;2022-08-21T07:20:03;26.30;46.30
11989;DHT22;6054;50.966;7.094;2022-08-21T07:22:31;26.40;46.20
11989;DHT22;6054;50.966;7.094;2022-08-21T07:24:59;26.50;45.40
11989;DHT22;6054;50.966;7.094;2022-08-21T07:27:26;26.60;45.40
11989;DHT22;6054;50.966;7.094;2022-08-21T07:29:52;26.60;45.10
11989;DHT22;6054;50.966;7.094;2022-08-21T07:32:19;26.80;44.60
11989;DHT22;6054;50.966;7.094;2022-08-21T07:34:46;26.70;44.30
11989;DHT22;6054;50.966;7.094;2022-08-21T07:37:14;26.90;44.20
11989;DHT22;6054;50.966;7.094;2022-08-21T07:39:41;26.80;44.10
11989;DHT22;6054;50.966;7.094;2022-08-21T07:42:08;26.90;44.30
11989;DHT22;6054;50.966;7.094;2022-08-21T07:44:35;27.20;44.30
11989;DHT22;6054;50.966;7.094;2022-08-21T07:47:02;27.00;44.30
11989;DHT22;6054;50.966;7.094;2022-08-21T07:49:29;27.10;43.70
11989;DHT22;6054;50.966;7.094;2022-08-21T07:51:56;27.20;43.30
11989;DHT22;6054;50.966;7.094;2022-08-21T07:54:24;27.10;43.80
11989;DHT22;6054;50.966;7.094;2022-08-21T07:56:51;27.20;43.30
11989;DHT22;6054;50.966;7.094;2022-08-21T07:59:18;27.30;43.30
11989;DHT22;6054;50.966;7.094;2022-08-21T08:01:45;27.50;43.10
11989;DHT22;6054;50.966;7.094;2022-08-21T08:04:12;27.50;43.10
11989;DHT22;6054;50.966;7.094;2022-08-21T08:06:40;27.50;42.90
11989;DHT22;6054;50.966;7.094;2022-08-21T08:09:07;27.60;42.30
11989;DHT22;6054;50.966;7.094;2022-08-21T08:11:35;27.80;42.90
11989;DHT22;6054;50.966;7.094;2022-08-21T08:14:05;27.70;42.80
11989;DHT22;6054;50.966;7.094;2022-08-21T08:16:32;27.80;42.40
11989;DHT22;6054;50.966;7.094;2022-08-21T08:18:58;27.90;42.50
11989;DHT22;6054;50.966;7.094;2022-08-21T08:21:25;28.00;42.40
11989;DHT22;6054;50.966;7.094;2022-08-21T08:23:52;28.20;42.40
11989;DHT22;6054;50.966;7.094;2022-08-21T08:26:19;28.20;42.20
11989;DHT22;6054;50.966;7.094;2022-08-21T08:28:47;28.30;42.00
11989;DHT22;6054;50.966;7.094;2022-08-21T08:31:14;28.40;42.20
11989;DHT22;6054;50.966;7.094;2022-08-21T08:33:41;28.50;41.50
11989;DHT22;6054;50.966;7.094;2022-08-21T08:36:13;28.70;40.90
11989;DHT22;6054;50.966;7.094;2022-08-21T08:38:40;28.70;40.40
11989;DHT22;6054;50.966;7.094;2022-08-21T08:41:12;28.80;39.90
11989;DHT22;6054;50.966;7.094;2022-08-21T08:43:41;28.80;39.90
11989;DHT22;6054;50.966;7.094;2022-08-21T08:46:14;28.90;39.70
11989;DHT22;6054;50.966;7.094;2022-08-21T08:48:47;29.00;39.80
11989;DHT22;6054;50.966;7.094;2022-08-21T08:51:21;29.00;39.80
11989;DHT22;6054;50.966;7.094;2022-08-21T08:53:52;29.10;39.40
11989;DHT22;6054;50.966;7.094;2022-08-21T08:56:27;29.20;39.10
11989;DHT22;6054;50.966;7.094;2022-08-21T08:58:57;29.20;38.80
11989;DHT22;6054;50.966;7.094;2022-08-21T09:01:27;29.40;38.50
11989;DHT22;6054;50.966;7.094;2022-08-21T09:03:54;29.50;37.90
11989;DHT22;6054;50.966;7.094;2022-08-21T09:06:37;29.60;37.70
11989;DHT22;6054;50.966;7.094;2022-08-21T09:09:22;29.60;38.30
11989;DHT22;6054;50.966;7.094;2022-08-21T09:11:57;29.80;38.00
11989;DHT22;6054;50.966;7.094;2022-08-21T09:14:38;29.90;37.80
11989;DHT22;6054;50.966;7.094;2022-08-21T09:17:15;29.90;37.30
11989;DHT22;6054;50.966;7.094;2022-08-21T09:19:58;30.10;37.50
11989;DHT22;6054;50.966;7.094;2022-08-21T09:22:33;30.20;37.40
11989;DHT22;6054;50.966;7.094;2022-08-21T09:25:07;30.30;36.80
11989;DHT22;6054;50.966;7.094;2022-08-21T09:27:35;30.60;36.60
11989;DHT22;6054;50.966;7.094;2022-08-21T09:30:05;30.50;35.50
11989;DHT22;6054;50.966;7.094;2022-08-21T09:32:35;30.50;35.80
11989;DHT22;6054;50.966;7.094;2022-08-21T09:35:06;30.60;35.90
11989;DHT22;6054;50.966;7.094;2022-08-21T09:37:35;30.70;35.90
11989;DHT22;6054;50.966;7.094;2022-08-21T09:40:13;30.80;35.80
11989;DHT22;6054;50.966;7.094;2022-08-21T09:42:41;30.90;35.50
11989;DHT22;6054;50.966;7.094;2022-08-21T09:45:12;31.00;35.30
11989;DHT22;6054;50.966;7.094;2022-08-21T09:47:41;31.10;35.10
11989;DHT22;6054;50.966;7.094;2022-08-21T09:50:11;31.20;33.80
11989;DHT22;6054;50.966;7.094;2022-08-21T09:52:44;31.30;35.00
11989;DHT22;6054;50.966;7.094;2022-08-21T09:55:18;31.40;34.80
11989;DHT22;6054;50.966;7.094;2022-08-21T09:57:59;31.50;34.60
11989;DHT22;6054;50.966;7.094;2022-08-21T10:00:29;31.70;34.10
11989;DHT22;6054;50.966;7.094;2022-08-21T10:03:10;31.80;33.30
11989;DHT22;6054;50.966;7.094;2022-08-21T10:05:39;32.00;33.50
11989;DHT22;6054;50.966;7.094;2022-08-21T10:08:16;31.90;33.10
11989;DHT22;6054;50.966;7.094;2022-08-21T10:10:43;32.00;32.80
11989;DHT22;6054;50.966;7.094;2022-08-21T10:13:14;32.10;31.90
11989;DHT22;6054;50.966;7.094;2022-08-21T10:15:49;32.10;32.10
11989;DHT22;6054;50.966;7.094;2022-08-21T10:18:27;32.20;32.00
11989;DHT22;6054;50.966;7.094;2022-08-21T10:21:02;32.20;32.50
11989;DHT22;6054;50.966;7.094;2022-08-21T10:23:42;32.30;32.40
11989;DHT22;6054;50.966;7.094;2022-08-21T10:26:28;32.40;32.90
11989;DHT22;6054;50.966;7.094;2022-08-21T10:29:03;32.40;32.20
11989;DHT22;6054;50.966;7.094;2022-08-21T10:31:42;32.50;32.30
11989;DHT22;6054;50.966;7.094;2022-08-21T10:34:21;32.60;32.00
11989;DHT22;6054;50.966;7.094;2022-08-21T10:37:05;32.40;31.60
11989;DHT22;6054;50.966;7.094;2022-08-21T10:39:35;32.60;32.00
11989;DHT22;6054;50.966;7.094;2022-08-21T10:42:14;32.70;31.70
11989;DHT22;6054;50.966;7.094;2022-08-21T10:44:49;32.80;31.90
11989;DHT22;6054;50.966;7.094;2022-08-21T10:47:27;32.90;31.50
11989;DHT22;6054;50.966;7.094;2022-08-21T10:50:04;32.90;31.00
11989;DHT22;6054;50.966;7.094;2022-08-21T10:52:49;33.00;31.10
11989;DHT22;6054;50.966;7.094;2022-08-21T10:55:20;32.80;30.90
11989;DHT22;6054;50.966;7.094;2022-08-21T10:57:50;33.10;30.80
11989;DHT22;6054;50.966;7.094;2022-08-21T11:00:20;33.10;30.80
11989;DHT22;6054;50.966;7.094;2022-08-21T11:02:50;33.20;30.90
11989;DHT22;6054;50.966;7.094;2022-08-21T11:05:27;33.30;30.80
11989;DHT22;6054;50.966;7.094;2022-08-21T11:08:02;33.10;30.60
11989;DHT22;6054;50.966;7.094;2022-08-21T11:10:33;33.40;29.30
11989;DHT22;6054;50.966;7.094;2022-08-21T11:13:05;33.40;30.10
11989;DHT22;6054;50.966;7.094;2022-08-21T11:15:37;33.50;30.00
11989;DHT22;6054;50.966;7.094;2022-08-21T11:18:17;33.50;30.30
11989;DHT22;6054;50.966;7.094;2022-08-21T11:20:52;33.50;30.70
11989;DHT22;6054;50.966;7.094;2022-08-21T11:23:26;33.60;30.80
11989;DHT22;6054;50.966;7.094;2022-08-21T11:26:02;33.60;30.50
11989;DHT22;6054;50.966;7.094;2022-08-21T11:28:34;33.70;30.20
11989;DHT22;6054;50.966;7.094;2022-08-21T11:31:08;33.70;30.20
11989;DHT22;6054;50.966;7.094;2022-08-21T11:33:54;33.80;29.90
11989;DHT22;6054;50.966;7.094;2022-08-21T11:36:33;33.80;29.40
11989;DHT22;6054;50.966;7.094;2022-08-21T11:39:06;33.80;29.40
11989;DHT22;6054;50.966;7.094;2022-08-21T11:41:39;33.90;30.00
11989;DHT22;6054;50.966;7.094;2022-08-21T11:44:12;33.80;30.00
11989;DHT22;6054;50.966;7.094;2022-08-21T11:46:48;33.90;30.00
11989;DHT22;6054;50.966;7.094;2022-08-21T11:49:29;33.90;30.00
11989;DHT22;6054;50.966;7.094;2022-08-21T11:52:08;33.90;29.80
11989;DHT22;6054;50.966;7.094;2022-08-21T11:54:40;34.00;29.40
11989;DHT22;6054;50.966;7.094;2022-08-21T11:57:17;34.00;29.00
11989;DHT22;6054;50.966;7.094;2022-08-21T11:59:56;34.00;29.60
11989;DHT22;6054;50.966;7.094;2022-08-21T12:02:28;34.10;29.40
11989;DHT22;6054;50.966;7.094;2022-08-21T12:05:00;34.10;28.90
11989;DHT22;6054;50.966;7.094;2022-08-21T12:07:33;34.10;29.50
11989;DHT22;6054;50.966;7.094;2022-08-21T12:10:01;34.10;29.40
11989;DHT22;6054;50.966;7.094;2022-08-21T12:12:31;34.20;29.20
11989;DHT22;6054;50.966;7.094;2022-08-21T12:15:26;34.20;29.20
11989;DHT22;6054;50.966;7.094;2022-08-21T12:17:59;34.20;29.40
11989;DHT22;6054;50.966;7.094;2022-08-21T12:20:44;34.20;29.40
11989;DHT22;6054;50.966;7.094;2022-08-21T12:23:19;34.40;29.10
11989;DHT22;6054;50.966;7.094;2022-08-21T12:26:02;34.10;29.00
11989;DHT22;6054;50.966;7.094;2022-08-21T12:28:30;34.20;29.40
11989;DHT22;6054;50.966;7.094;2022-08-21T12:30:58;34.20;29.10
11989;DHT22;6054;50.966;7.094;2022-08-21T12:33:30;34.30;28.40
11989;DHT22;6054;50.966;7.094;2022-08-21T12:36:10;34.40;28.80
11989;DHT22;6054;50.966;7.094;2022-08-21T12:38:45;34.50;28.90
11989;DHT22;6054;50.966;7.094;2022-08-21T12:41:19;34.50;28.70
11989;DHT22;6054;50.966;7.094;2022-08-21T12:43:53;34.60;28.50
11989;DHT22;6054;50.966;7.094;2022-08-21T12:46:32;34.60;28.50
11989;DHT22;6054;50.966;7.094;2022-08-21T12:49:12;34.70;27.80
11989;DHT22;6054;50.966;7.094;2022-08-21T12:51:48;34.60;28.60
11989;DHT22;6054;50.966;7.094;2022-08-21T12:54:26;34.80;28.40
11989;DHT22;6054;50.966;7.094;2022-08-21T12:56:58;34.90;28.30
11989;DHT22;6054;50.966;7.094;2022-08-21T12:59:25;35.10;28.20
11989;DHT22;6054;50.966;7.094;2022-08-21T13:01:52;35.20;27.30
11989;DHT22;6054;50.966;7.094;2022-08-21T13:04:22;35.20;27.20
11989;DHT22;6054;50.966;7.094;2022-08-21T13:06:53;35.20;27.60
11989;DHT22;6054;50.966;7.094;2022-08-21T13:09:26;35.20;27.40
11989;DHT22;6054;50.966;7.094;2022-08-21T13:11:54;35.20;27.50
11989;DHT22;6054;50.966;7.094;2022-08-21T13:14:27;35.30;27.60
11989;DHT22;6054;50.966;7.094;2022-08-21T13:20:23;35.10;27.70
11989;DHT22;6054;50.966;7.094;2022-08-21T13:25:26;35.10;27.80
11989;DHT22;6054;50.966;7.094;2022-08-21T13:28:04;35.00;27.60
11989;DHT22;6054;50.966;7.094;2022-08-21T13:30:31;35.00;27.80
11989;DHT22;6054;50.966;7.094;2022-08-21T13:33:01;35.10;27.60
11989;DHT22;6054;50.966;7.094;2022-08-21T13:35:34;35.10;27.60
11989;DHT22;6054;50.966;7.094;2022-08-21T13:38:02;35.10;27.60
11989;DHT22;6054;50.966;7.094;2022-08-21T13:40:36;35.20;27.10
11989;DHT22;6054;50.966;7.094;2022-08-21T13:43:11;35.10;27.50
11989;DHT22;6054;50.966;7.094;2022-08-21T13:45:38;35.20;27.70
11989;DHT22;6054;50.966;7.094;2022-08-21T13:48:05;35.10;27.30
11989;DHT22;6054;50.966;7.094;2022-08-21T13:50:34;35.00;27.40
11989;DHT22;6054;50.966;7.094;2022-08-21T13:53:04;35.00;27.80
11989;DHT22;6054;50.966;7.094;2022-08-21T13:55:37;35.00;27.90
11989;DHT22;6054;50.966;7.094;2022-08-21T13:58:05;34.90;27.70
11989;DHT22;6054;50.966;7.094;2022-08-21T14:00:34;35.00;28.00
11989;DHT22;6054;50.966;7.094;2022-08-21T14:03:06;35.00;28.00
11989;DHT22;6054;50.966;7.094;2022-08-21T14:05:36;35.00;28.00
11989;DHT22;6054;50.966;7.094;2022-08-21T14:08:10;35.00;28.10
11989;DHT22;6054;50.966;7.094;2022-08-21T14:10:42;35.20;28.30
11989;DHT22;6054;50.966;7.094;2022-08-21T14:13:34;35.30;28.30
11989;DHT22;6054;50.966;7.094;2022-08-21T14:16:14;35.40;28.00
11989;DHT22;6054;50.966;7.094;2022-08-21T14:18:47;35.40;27.90
11989;DHT22;6054;50.966;7.094;2022-08-21T14:21:33;35.40;27.70
11989;DHT22;6054;50.966;7.094;2022-08-21T14:24:06;35.50;27.80
11989;DHT22;6054;50.966;7.094;2022-08-21T14:26:45;35.50;27.80
11989;DHT22;6054;50.966;7.094;2022-08-21T14:29:14;35.50;27.90
11989;DHT22;6054;50.966;7.094;2022-08-21T14:31:41;35.50;27.90
11989;DHT22;6054;50.966;7.094;2022-08-21T14:34:11;35.50;27.80
11989;DHT22;6054;50.966;7.094;2022-08-21T14:36:39;35.50;28.00
11989;DHT22;6054;50.966;7.094;2022-08-21T14:39:05;35.40;27.50
11989;DHT22;6054;50.966;7.094;2022-08-21T14:41:32;35.40;28.00
11989;DHT22;6054;50.966;7.094;2022-08-21T14:44:00;35.40;27.50
11989;DHT22;6054;50.966;7.094;2022-08-21T14:46:29;35.40;27.70
11989;DHT22;6054;50.966;7.094;2022-08-21T14:48:57;35.40;28.00
11989;DHT22;6054;50.966;7.094;2022-08-21T14:51:24;35.40;27.90
11989;DHT22;6054;50.966;7.094;2022-08-21T14:53:51;35.40;27.70
11989;DHT22;6054;50.966;7.094;2022-08-21T14:56:19;35.40;27.70
11989;DHT22;6054;50.966;7.094;2022-08-21T14:58:47;35.40;27.40
11989;DHT22;6054;50.966;7.094;2022-08-21T15:01:17;35.30;27.50
11989;DHT22;6054;50.966;7.094;2022-08-21T15:03:45;35.20;27.60
11989;DHT22;6054;50.966;7.094;2022-08-21T15:06:14;35.20;27.60
11989;DHT22;6054;50.966;7.094;2022-08-21T15:08:41;35.20;27.70
11989;DHT22;6054;50.966;7.094;2022-08-21T15:11:11;35.10;27.70
11989;DHT22;6054;50.966;7.094;2022-08-21T15:13:39;35.00;27.80
11989;DHT22;6054;50.966;7.094;2022-08-21T15:16:08;35.00;27.60
11989;DHT22;6054;50.966;7.094;2022-08-21T15:18:38;34.90;27.90
11989;DHT22;6054;50.966;7.094;2022-08-21T15:21:05;34.90;27.50
11989;DHT22;6054;50.966;7.094;2022-08-21T15:23:32;34.80;27.40
11989;DHT22;6054;50.966;7.094;2022-08-21T15:25:59;34.80;27.60
11989;DHT22;6054;50.966;7.094;2022-08-21T15:28:26;34.80;27.50
11989;DHT22;6054;50.966;7.094;2022-08-21T15:30:52;34.70;27.50
11989;DHT22;6054;50.966;7.094;2022-08-21T15:33:19;34.70;27.50
11989;DHT22;6054;50.966;7.094;2022-08-21T15:35:48;34.70;27.50
11989;DHT22;6054;50.966;7.094;2022-08-21T15:38:15;34.60;27.40
11989;DHT22;6054;50.966;7.094;2022-08-21T15:40:42;34.50;27.10
11989;DHT22;6054;50.966;7.094;2022-08-21T15:43:16;34.50;27.60
11989;DHT22;6054;50.966;7.094;2022-08-21T15:45:45;34.50;27.80
11989;DHT22;6054;50.966;7.094;2022-08-21T15:48:11;34.50;27.50
11989;DHT22;6054;50.966;7.094;2022-08-21T15:50:38;34.50;27.60
11989;DHT22;6054;50.966;7.094;2022-08-21T15:53:06;34.40;27.70
11989;DHT22;6054;50.966;7.094;2022-08-21T15:55:34;34.50;27.60
11989;DHT22;6054;50.966;7.094;2022-08-21T15:58:01;34.40;27.80
11989;DHT22;6054;50.966;7.094;2022-08-21T16:00:32;34.40;27.80
11989;DHT22;6054;50.966;7.094;2022-08-21T16:03:03;34.30;27.70
11989;DHT22;6054;50.966;7.094;2022-08-21T16:05:30;34.30;27.90
11989;DHT22;6054;50.966;7.094;2022-08-21T16:07:57;34.30;27.80
11989;DHT22;6054;50.966;7.094;2022-08-21T16:10:26;34.50;27.90
11989;DHT22;6054;50.966;7.094;2022-08-21T16:12:56;34.30;27.70
11989;DHT22;6054;50.966;7.094;2022-08-21T16:15:24;34.30;28.00
11989;DHT22;6054;50.966;7.094;2022-08-21T16:17:52;34.30;28.00
11989;DHT22;6054;50.966;7.094;2022-08-21T16:20:21;34.30;28.10